JST530 YMML-YSSY
Flight info
| Callsign | JST530 |
|---|---|
| Flight time | 1h 5m |
| Altitude | 37000 |
| Route | DOSEL2/34 DOSEL Y59 RIVET |
| Aircraft | A320/M-SDE3FGHIRWY/LB1 |
Departure
| Time | 2026-05-04 08:46 |
|---|---|
| Airport | Melbourne Airport (YMML) |
Arrival
| Time | 2026-05-04 09:51 |
|---|---|
| Airport | Sydney Kingsford Smith International Airport (YSSY) |
| Time | Latitude | Longitude | Altitude | Speed | Heading |
|---|---|---|---|---|---|
| 2026-05-04 07:14 | -37.67525 | 144.84742 | 380 ft | 0 kts | 171° |
| 2026-05-04 07:27 | -37.67524 | 144.84742 | 379 ft | 0 kts | 172° |
| 2026-05-04 07:46 | -37.67523 | 144.84742 | 379 ft | 0 kts | 172° |
| 2026-05-04 07:58 | -37.67523 | 144.84741 | 379 ft | 0 kts | 172° |
| 2026-05-04 08:12 | -37.67522 | 144.84741 | 379 ft | 0 kts | 172° |
| 2026-05-04 08:21 | -37.67512 | 144.84739 | 380 ft | 7 kts | 172° |
| 2026-05-04 08:21 | -37.67492 | 144.84736 | 380 ft | 7 kts | 175° |
| 2026-05-04 08:21 | -37.67471 | 144.84735 | 381 ft | 7 kts | 181° |
| 2026-05-04 08:22 | -37.67452 | 144.84737 | 381 ft | 7 kts | 197° |
| 2026-05-04 08:22 | -37.67436 | 144.84746 | 382 ft | 3 kts | 244° |
| 2026-05-04 08:24 | -37.67433 | 144.84754 | 382 ft | 0 kts | 262° |
| 2026-05-04 08:27 | -37.67446 | 144.84632 | 381 ft | 12 kts | 261° |
| 2026-05-04 08:28 | -37.67461 | 144.84512 | 379 ft | 16 kts | 261° |
| 2026-05-04 08:28 | -37.67478 | 144.84358 | 376 ft | 20 kts | 262° |
| 2026-05-04 08:28 | -37.67485 | 144.84311 | 375 ft | 0 kts | 259° |
| 2026-05-04 08:28 | -37.67487 | 144.84296 | 375 ft | 3 kts | 260° |
| 2026-05-04 08:29 | -37.67490 | 144.84277 | 374 ft | 2 kts | 261° |
| 2026-05-04 08:29 | -37.67493 | 144.84242 | 374 ft | 6 kts | 263° |
| 2026-05-04 08:29 | -37.67496 | 144.84214 | 373 ft | 0 kts | 261° |
| 2026-05-04 08:31 | -37.67741 | 144.84163 | 364 ft | 0 kts | 171° |
| 2026-05-04 08:33 | -37.67747 | 144.84164 | 364 ft | 0 kts | 172° |
| 2026-05-04 08:35 | -37.67802 | 144.84173 | 362 ft | 0 kts | 172° |
| 2026-05-04 08:37 | -37.67831 | 144.84171 | 362 ft | 6 kts | 190° |
| 2026-05-04 08:37 | -37.67864 | 144.84144 | 362 ft | 8 kts | 230° |
| 2026-05-04 08:37 | -37.67872 | 144.84116 | 362 ft | 0 kts | 257° |
| 2026-05-04 08:41 | -37.67872 | 144.84117 | 362 ft | 0 kts | 257° |
| 2026-05-04 08:42 | -37.67872 | 144.84116 | 362 ft | 1 kts | 257° |
| 2026-05-04 08:42 | -37.67881 | 144.84047 | 360 ft | 17 kts | 268° |
| 2026-05-04 08:42 | -37.67820 | 144.83957 | 357 ft | 7 kts | 346° |
| 2026-05-04 08:43 | -37.67809 | 144.83954 | 362 ft | 0 kts | 348° |
| 2026-05-04 08:43 | -37.67737 | 144.83939 | 361 ft | 38 kts | 351° |
| 2026-05-04 08:43 | -37.67266 | 144.83852 | 377 ft | 95 kts | 351° |
| 2026-05-04 08:44 | -37.66450 | 144.83699 | 412 ft | 139 kts | 352° |
| 2026-05-04 08:44 | -37.65475 | 144.83524 | 829 ft | 144 kts | 353° |
| 2026-05-04 08:46 | -37.56895 | 144.83625 | 4133 ft | 256 kts | 20° |
| 2026-05-04 08:46 | -37.55288 | 144.84653 | 4834 ft | 264 kts | 19° |
| 2026-05-04 08:46 | -37.53635 | 144.85661 | 4991 ft | 265 kts | 18° |
| 2026-05-04 08:46 | -37.51976 | 144.86657 | 5027 ft | 264 kts | 18° |
| 2026-05-04 08:47 | -37.50315 | 144.87651 | 5033 ft | 264 kts | 18° |
| 2026-05-04 08:47 | -37.48629 | 144.88662 | 5619 ft | 269 kts | 19° |
| 2026-05-04 08:47 | -37.46930 | 144.89687 | 6542 ft | 272 kts | 19° |
| 2026-05-04 08:47 | -37.45218 | 144.90730 | 7406 ft | 276 kts | 21° |
| 2026-05-04 08:48 | -37.43609 | 144.92137 | 8213 ft | 289 kts | 37° |
| 2026-05-04 08:48 | -37.42274 | 144.94090 | 9050 ft | 299 kts | 50° |
| 2026-05-04 08:48 | -37.41072 | 144.96234 | 9859 ft | 302 kts | 50° |
| 2026-05-04 08:48 | -37.39838 | 144.98424 | 10371 ft | 316 kts | 50° |
| 2026-05-04 08:49 | -37.38512 | 145.00764 | 10564 ft | 340 kts | 50° |
| 2026-05-04 08:50 | -37.29768 | 145.16237 | 14291 ft | 375 kts | 51° |
| 2026-05-04 08:50 | -37.28246 | 145.18917 | 14908 ft | 378 kts | 51° |
| 2026-05-04 08:51 | -37.26717 | 145.21608 | 15529 ft | 381 kts | 51° |
| 2026-05-04 08:51 | -37.25168 | 145.24328 | 16127 ft | 384 kts | 50° |
| 2026-05-04 08:51 | -37.23610 | 145.27064 | 16733 ft | 387 kts | 50° |
| 2026-05-04 08:51 | -37.22034 | 145.29830 | 17341 ft | 390 kts | 51° |
| 2026-05-04 08:52 | -37.20454 | 145.32605 | 17959 ft | 393 kts | 50° |
| 2026-05-04 08:52 | -37.18853 | 145.35410 | 18546 ft | 396 kts | 50° |
| 2026-05-04 08:52 | -37.17241 | 145.38231 | 19111 ft | 399 kts | 50° |
| 2026-05-04 08:52 | -37.15619 | 145.41076 | 19693 ft | 402 kts | 50° |
| 2026-05-04 08:53 | -37.13986 | 145.43932 | 20275 ft | 405 kts | 50° |
| 2026-05-04 08:54 | -37.02177 | 145.64468 | 23892 ft | 425 kts | 49° |
| 2026-05-04 08:55 | -37.00443 | 145.67475 | 24286 ft | 428 kts | 48° |
| 2026-05-04 08:55 | -36.98695 | 145.70507 | 24680 ft | 430 kts | 48° |
| 2026-05-04 08:55 | -36.96940 | 145.73553 | 25071 ft | 433 kts | 47° |
| 2026-05-04 09:01 | -36.56033 | 146.43597 | 33024 ft | 465 kts | 44° |
| 2026-05-04 09:01 | -36.54119 | 146.46836 | 33391 ft | 466 kts | 44° |
| 2026-05-04 09:01 | -36.52197 | 146.50085 | 33754 ft | 466 kts | 44° |
| 2026-05-04 09:01 | -36.50274 | 146.53335 | 34114 ft | 467 kts | 44° |
| 2026-05-04 09:02 | -36.48352 | 146.56584 | 34408 ft | 467 kts | 45° |
| 2026-05-04 09:02 | -36.46420 | 146.59847 | 34686 ft | 468 kts | 45° |
| 2026-05-04 09:02 | -36.44489 | 146.63107 | 34953 ft | 469 kts | 45° |
| 2026-05-04 09:02 | -36.42552 | 146.66374 | 35220 ft | 470 kts | 45° |
| 2026-05-04 09:03 | -36.40611 | 146.69645 | 35459 ft | 471 kts | 45° |
| 2026-05-04 09:03 | -36.38691 | 146.72877 | 35716 ft | 472 kts | 45° |
| 2026-05-04 09:03 | -36.36716 | 146.76196 | 35978 ft | 472 kts | 45° |
| 2026-05-04 09:03 | -36.34763 | 146.79472 | 36226 ft | 473 kts | 45° |
| 2026-05-04 09:04 | -36.32805 | 146.82747 | 36475 ft | 473 kts | 45° |
| 2026-05-04 09:04 | -36.30845 | 146.86024 | 36724 ft | 473 kts | 45° |
| 2026-05-04 09:04 | -36.28880 | 146.89307 | 36956 ft | 474 kts | 45° |
| 2026-05-04 09:05 | -36.24951 | 146.95865 | 37045 ft | 480 kts | 46° |
| 2026-05-04 09:05 | -36.20964 | 147.02508 | 37048 ft | 481 kts | 45° |
| 2026-05-04 09:06 | -36.16979 | 147.09148 | 37050 ft | 480 kts | 45° |
| 2026-05-04 09:08 | -36.01016 | 147.35575 | 37064 ft | 479 kts | 45° |
| 2026-05-04 09:08 | -35.97018 | 147.42170 | 37065 ft | 480 kts | 45° |
| 2026-05-04 09:09 | -35.93016 | 147.48752 | 37064 ft | 480 kts | 44° |
| 2026-05-04 09:09 | -35.89005 | 147.55329 | 37069 ft | 480 kts | 44° |
| 2026-05-04 09:10 | -35.84990 | 147.61908 | 37076 ft | 480 kts | 44° |
| 2026-05-04 09:10 | -35.80979 | 147.68471 | 37073 ft | 480 kts | 44° |
| 2026-05-04 09:11 | -35.76959 | 147.75036 | 37079 ft | 480 kts | 44° |
| 2026-05-04 09:11 | -35.72935 | 147.81591 | 37072 ft | 480 kts | 44° |
| 2026-05-04 09:12 | -35.68905 | 147.88146 | 37079 ft | 480 kts | 44° |
| 2026-05-04 09:14 | -35.53403 | 148.13242 | 37086 ft | 481 kts | 44° |
| 2026-05-04 09:14 | -35.49347 | 148.19770 | 37088 ft | 481 kts | 44° |
| 2026-05-04 09:15 | -35.45280 | 148.26302 | 37085 ft | 481 kts | 44° |
| 2026-05-04 09:15 | -35.41210 | 148.32834 | 37096 ft | 482 kts | 44° |
| 2026-05-04 09:17 | -35.22917 | 148.62070 | 37084 ft | 481 kts | 43° |
| 2026-05-04 09:18 | -35.18834 | 148.68563 | 37085 ft | 481 kts | 43° |
| 2026-05-04 09:18 | -35.14740 | 148.75028 | 37089 ft | 481 kts | 43° |
| 2026-05-04 09:19 | -35.10650 | 148.81499 | 37078 ft | 481 kts | 43° |
| 2026-05-04 09:19 | -35.06561 | 148.87967 | 37083 ft | 481 kts | 43° |
| 2026-05-04 09:20 | -35.02473 | 148.94419 | 37080 ft | 480 kts | 43° |
| 2026-05-04 09:20 | -34.98381 | 149.00868 | 37078 ft | 480 kts | 43° |
| 2026-05-04 09:21 | -34.94288 | 149.07297 | 36980 ft | 480 kts | 43° |
| 2026-05-04 09:21 | -34.92236 | 149.10516 | 36712 ft | 479 kts | 43° |
| 2026-05-04 09:21 | -34.90192 | 149.13721 | 36459 ft | 478 kts | 43° |
| 2026-05-04 09:22 | -34.88151 | 149.16915 | 36207 ft | 478 kts | 43° |
| 2026-05-04 09:22 | -34.86105 | 149.20109 | 35960 ft | 477 kts | 43° |
| 2026-05-04 09:22 | -34.84065 | 149.23298 | 35712 ft | 477 kts | 43° |
| 2026-05-04 09:22 | -34.82029 | 149.26484 | 35467 ft | 477 kts | 43° |
| 2026-05-04 09:23 | -34.79989 | 149.29679 | 35224 ft | 477 kts | 43° |
| 2026-05-04 09:23 | -34.77955 | 149.32854 | 34980 ft | 477 kts | 43° |
| 2026-05-04 09:23 | -34.75911 | 149.36039 | 34558 ft | 477 kts | 43° |
| 2026-05-04 09:23 | -34.73929 | 149.39338 | 33578 ft | 491 kts | 49° |
| 2026-05-04 09:25 | -34.62794 | 149.64718 | 28985 ft | 469 kts | 54° |
| 2026-05-04 09:25 | -34.61273 | 149.68188 | 28405 ft | 463 kts | 54° |
| 2026-05-04 09:26 | -34.59769 | 149.71612 | 27823 ft | 458 kts | 53° |
| 2026-05-04 09:26 | -34.58274 | 149.75009 | 27240 ft | 453 kts | 53° |
| 2026-05-04 09:26 | -34.56799 | 149.78360 | 26680 ft | 449 kts | 53° |
| 2026-05-04 09:26 | -34.55333 | 149.81692 | 26108 ft | 445 kts | 53° |
| 2026-05-04 09:27 | -34.53880 | 149.84992 | 25559 ft | 442 kts | 53° |
| 2026-05-04 09:27 | -34.52439 | 149.88260 | 25021 ft | 438 kts | 53° |
| 2026-05-04 09:27 | -34.51009 | 149.91500 | 24489 ft | 434 kts | 53° |
| 2026-05-04 09:27 | -34.49590 | 149.94711 | 23994 ft | 431 kts | 53° |
| 2026-05-04 09:28 | -34.48179 | 149.97901 | 23537 ft | 427 kts | 53° |
| 2026-05-04 09:28 | -34.46809 | 150.01007 | 23160 ft | 410 kts | 53° |
| 2026-05-04 09:28 | -34.45497 | 150.03986 | 22527 ft | 403 kts | 54° |
| 2026-05-04 09:28 | -34.44171 | 150.06973 | 22038 ft | 402 kts | 53° |
| 2026-05-04 09:29 | -34.42848 | 150.09943 | 21559 ft | 399 kts | 53° |
| 2026-05-04 09:29 | -34.41533 | 150.12889 | 21082 ft | 398 kts | 54° |
| 2026-05-04 09:29 | -34.40216 | 150.15834 | 20614 ft | 395 kts | 54° |
| 2026-05-04 09:29 | -34.38925 | 150.18731 | 20172 ft | 391 kts | 54° |
| 2026-05-04 09:30 | -34.37641 | 150.21618 | 19588 ft | 386 kts | 55° |
| 2026-05-04 09:30 | -34.36373 | 150.24474 | 19143 ft | 384 kts | 55° |
| 2026-05-04 09:30 | -34.35125 | 150.27290 | 18784 ft | 374 kts | 55° |
| 2026-05-04 09:30 | -34.33904 | 150.30043 | 18049 ft | 370 kts | 55° |
| 2026-05-04 09:31 | -34.32680 | 150.32784 | 17487 ft | 370 kts | 55° |
| 2026-05-04 09:31 | -34.31453 | 150.35521 | 16962 ft | 369 kts | 55° |
| 2026-05-04 09:31 | -34.30232 | 150.38233 | 16568 ft | 364 kts | 55° |
| 2026-05-04 09:31 | -34.29021 | 150.40922 | 15921 ft | 361 kts | 55° |
| 2026-05-04 09:32 | -34.27846 | 150.43538 | 15430 ft | 351 kts | 55° |
| 2026-05-04 09:32 | -34.26682 | 150.46133 | 14923 ft | 351 kts | 55° |
| 2026-05-04 09:34 | -34.18606 | 150.64158 | 11349 ft | 343 kts | 56° |
| 2026-05-04 09:34 | -34.17472 | 150.66684 | 10844 ft | 341 kts | 56° |
| 2026-05-04 09:34 | -34.16358 | 150.69158 | 10407 ft | 338 kts | 56° |
| 2026-05-04 09:34 | -34.15260 | 150.71606 | 10280 ft | 325 kts | 56° |
| 2026-05-04 09:35 | -34.14222 | 150.73932 | 10091 ft | 305 kts | 56° |
| 2026-05-04 09:35 | -34.13223 | 150.76162 | 9745 ft | 299 kts | 56° |
| 2026-05-04 09:35 | -34.12239 | 150.78340 | 9611 ft | 294 kts | 55° |
| 2026-05-04 09:35 | -34.11259 | 150.80507 | 9381 ft | 294 kts | 55° |
| 2026-05-04 09:37 | -34.04549 | 150.95357 | 7306 ft | 282 kts | 55° |
| 2026-05-04 09:37 | -34.03688 | 150.97484 | 7023 ft | 286 kts | 66° |
| 2026-05-04 09:38 | -34.03435 | 150.99885 | 6738 ft | 295 kts | 90° |
| 2026-05-04 09:38 | -34.03985 | 151.02282 | 6424 ft | 303 kts | 115° |
| 2026-05-04 09:38 | -34.05270 | 151.04299 | 6113 ft | 305 kts | 132° |
| 2026-05-04 09:38 | -34.06755 | 151.06115 | 5990 ft | 303 kts | 138° |
| 2026-05-04 09:39 | -34.08510 | 151.07531 | 6009 ft | 305 kts | 155° |
| 2026-05-04 09:39 | -34.10543 | 151.08391 | 6015 ft | 323 kts | 169° |
| 2026-05-04 09:39 | -34.12783 | 151.08964 | 6011 ft | 333 kts | 170° |
| 2026-05-04 09:39 | -34.15056 | 151.09552 | 6008 ft | 335 kts | 169° |
| 2026-05-04 09:40 | -34.17341 | 151.10143 | 5561 ft | 340 kts | 169° |
| 2026-05-04 09:40 | -34.19685 | 151.10750 | 4647 ft | 344 kts | 169° |
| 2026-05-04 09:40 | -34.22003 | 151.11349 | 3947 ft | 335 kts | 169° |
| 2026-05-04 09:40 | -34.24184 | 151.11910 | 3851 ft | 307 kts | 169° |
| 2026-05-04 09:41 | -34.26212 | 151.12435 | 3787 ft | 290 kts | 169° |
| 2026-05-04 09:42 | -34.29135 | 151.22750 | 3270 ft | 221 kts | 25° |
| 2026-05-04 09:43 | -34.27799 | 151.23654 | 3186 ft | 221 kts | 23° |
| 2026-05-04 09:43 | -34.26448 | 151.24528 | 3100 ft | 219 kts | 23° |
| 2026-05-04 09:43 | -34.25039 | 151.25181 | 3002 ft | 215 kts | 6° |
| 2026-05-04 09:43 | -34.23571 | 151.25142 | 3005 ft | 211 kts | 347° |
| 2026-05-04 09:44 | -34.22176 | 151.24776 | 3006 ft | 199 kts | 346° |
| 2026-05-04 09:44 | -34.20842 | 151.24425 | 3007 ft | 196 kts | 347° |
| 2026-05-04 09:44 | -34.19513 | 151.24077 | 3009 ft | 195 kts | 346° |
| 2026-05-04 09:46 | -34.10411 | 151.21703 | 2763 ft | 178 kts | 347° |
| 2026-05-04 09:46 | -34.09208 | 151.21390 | 2574 ft | 174 kts | 348° |
| 2026-05-04 09:46 | -34.08041 | 151.21086 | 2335 ft | 170 kts | 346° |
| 2026-05-04 09:47 | -34.06894 | 151.20787 | 2104 ft | 166 kts | 348° |
| 2026-05-04 09:47 | -34.05778 | 151.20497 | 1882 ft | 162 kts | 349° |
| 2026-05-04 09:49 | -33.99123 | 151.18766 | 607 ft | 135 kts | 351° |
| 2026-05-04 09:49 | -33.98203 | 151.18527 | 424 ft | 135 kts | 351° |
| 2026-05-04 09:49 | -33.97279 | 151.18288 | 238 ft | 133 kts | 350° |
| 2026-05-04 09:51 | -33.94479 | 151.17696 | 30 ft | 3 kts | 17° |
| 2026-05-04 09:51 | -33.94468 | 151.17700 | 30 ft | 0 kts | 18° |
| 2026-05-04 09:51 | -33.94465 | 151.17701 | 30 ft | 0 kts | 18° |
| 2026-05-04 09:51 | -33.94459 | 151.17703 | 30 ft | 1 kts | 18° |
| 2026-05-04 09:52 | -33.94455 | 151.17705 | 30 ft | 0 kts | 18° |
| 2026-05-04 09:52 | -33.94453 | 151.17706 | 30 ft | 0 kts | 18° |
| 2026-05-04 09:52 | -33.94450 | 151.17707 | 30 ft | 2 kts | 18° |
| 2026-05-04 09:52 | -33.94419 | 151.17720 | 30 ft | 8 kts | 18° |
| 2026-05-04 09:53 | -33.94348 | 151.17735 | 30 ft | 13 kts | 357° |
| 2026-05-04 09:53 | -33.94246 | 151.17708 | 29 ft | 17 kts | 347° |
| 2026-05-04 09:53 | -33.94113 | 151.17668 | 29 ft | 22 kts | 347° |
| 2026-05-04 09:53 | -33.93949 | 151.17626 | 29 ft | 24 kts | 348° |
| 2026-05-04 09:54 | -33.93807 | 151.17587 | 29 ft | 21 kts | 348° |
| 2026-05-04 09:54 | -33.93705 | 151.17561 | 29 ft | 12 kts | 357° |
| 2026-05-04 09:54 | -33.93640 | 151.17603 | 30 ft | 11 kts | 38° |
| 2026-05-04 09:54 | -33.93571 | 151.17607 | 30 ft | 8 kts | 347° |
| 2026-05-04 09:55 | -33.93546 | 151.17617 | 30 ft | 3 kts | 76° |
| 2026-05-04 09:55 | -33.93551 | 151.17640 | 30 ft | 1 kts | 103° |
| 2026-05-04 09:55 | -33.93553 | 151.17646 | 30 ft | 0 kts | 102° |
| 2026-05-04 09:55 | -33.93553 | 151.17650 | 30 ft | 1 kts | 102° |
| 2026-05-04 09:56 | -33.93554 | 151.17657 | 30 ft | 2 kts | 101° |
| 2026-05-04 09:56 | -33.93556 | 151.17669 | 30 ft | 1 kts | 102° |
| 2026-05-04 09:56 | -33.93558 | 151.17680 | 30 ft | 2 kts | 102° |
| 2026-05-04 09:56 | -33.93559 | 151.17687 | 30 ft | 0 kts | 100° |